Terminal Aerodrome Forecast
Issued by NWS

Home | Current Version | Previous Version | Text Only | Print | Product List | Glossary On
Versions: 1 2 3 4 5 6 7 8 9 10 11 12 13 14
000
FTUS41 KCLE 301736
TAFFDY
TAF
KFDY 301736Z 3018/3118 VRB03KT P6SM BKN035
      TEMPO 3021/3024 5SM SHRA OVC025
     FM310200 VRB03KT P6SM SCT250
     FM310900 28004KT 3SM BR OVC015=

USA.gov is the U.S. government's official web portal to all federal, state and local government web resources and services.